Time;durP1;ratioP1;P1;durP2;ratioP2;P2;SDS_P1;SDS_P2;PMS_P1;PMS_P2;Temp;Humidity;BMP_temperature;BMP_pressure;BME280_temperature;BME280_humidity;BME280_pressure;Samples;Min_cycle;Max_cycle;Signal;HPM_P1;HPM_P2
2023/07/20 00:00:44;;;;;;;3.58;1.55;;;16.60;99.90;;;;;;5001585;28;20034;-69
2023/07/20 00:03:18;;;;;;;3.28;1.42;;;16.50;99.90;;;;;;4998187;28;20369;-69
2023/07/20 00:05:44;;;;;;;2.70;1.55;;;16.50;99.90;;;;;;5001461;28;20046;-69
2023/07/20 00:08:10;;;;;;;2.47;1.15;;;16.50;99.90;;;;;;4998437;28;20084;-72
2023/07/20 00:10:36;;;;;;;5.03;1.83;;;16.40;99.90;;;;;;4999061;28;20045;-68
2023/07/20 00:13:01;;;;;;;2.00;1.30;;;16.50;99.90;;;;;;5001256;28;20130;-69
2023/07/20 00:15:27;;;;;;;1.92;1.00;;;16.50;99.90;;;;;;5001563;28;20458;-69
2023/07/20 00:17:52;;;;;;;3.05;0.82;;;16.50;99.90;;;;;;4996994;28;20116;-68
2023/07/20 00:20:18;;;;;;;2.75;1.48;;;16.50;99.90;;;;;;4996716;28;20038;-70
2023/07/20 00:22:43;;;;;;;1.23;0.70;;;16.50;99.90;;;;;;5000823;28;20041;-71
2023/07/20 00:25:11;;;;;;;1.15;0.70;;;16.50;99.90;;;;;;4999488;28;20034;-69
2023/07/20 00:27:37;;;;;;;1.60;1.02;;;16.50;99.90;;;;;;5000768;28;20100;-68
2023/07/20 00:30:04;;;;;;;0.82;0.65;;;16.50;99.90;;;;;;4992004;28;20496;-70
2023/07/20 00:32:29;;;;;;;1.75;1.13;;;16.40;99.90;;;;;;4996966;28;20073;-70
2023/07/20 00:34:55;;;;;;;1.80;0.85;;;16.50;99.90;;;;;;4999815;28;20022;-68
2023/07/20 00:37:20;;;;;;;1.52;0.88;;;16.40;99.90;;;;;;4998744;28;20176;-68
2023/07/20 00:39:46;;;;;;;2.20;1.20;;;16.30;99.90;;;;;;4998908;28;20031;-70
2023/07/20 00:42:11;;;;;;;3.10;0.85;;;16.30;99.90;;;;;;4999932;28;20439;-67
2023/07/20 00:44:37;;;;;;;2.50;0.80;;;16.20;99.90;;;;;;4998262;28;20121;-70
2023/07/20 00:47:03;;;;;;;1.75;0.75;;;16.10;99.90;;;;;;4995068;28;20061;-69
2023/07/20 00:49:29;;;;;;;2.03;0.95;;;16.00;99.90;;;;;;5001094;28;20034;-69
2023/07/20 00:51:55;;;;;;;3.33;0.93;;;16.00;99.90;;;;;;4992110;28;20046;-68
2023/07/20 00:54:20;;;;;;;2.65;0.65;;;16.00;99.90;;;;;;4995753;28;20042;-70
2023/07/20 00:56:46;;;;;;;1.52;0.60;;;15.90;99.90;;;;;;5001703;28;20042;-71
2023/07/20 00:59:12;;;;;;;1.08;0.50;;;15.80;99.90;;;;;;4999868;28;20460;-69
2023/07/20 01:01:38;;;;;;;2.20;0.80;;;15.80;99.90;;;;;;4996816;28;20041;-69
2023/07/20 01:04:04;;;;;;;1.40;0.60;;;15.70;99.90;;;;;;4995470;28;20030;-68
2023/07/20 01:06:50;;;;;;;1.08;0.60;;;15.70;99.90;;;;;;5004452;28;20125;-69
2023/07/20 01:09:25;;;;;;;1.63;0.63;;;15.70;99.90;;;;;;4995987;28;20038;-70
2023/07/20 01:12:08;;;;;;;1.45;0.77;;;15.60;99.90;;;;;;4998937;28;20104;-70
2023/07/20 01:14:34;;;;;;;2.28;0.50;;;15.60;99.90;;;;;;4993079;28;20118;-71
2023/07/20 01:17:01;;;;;;;3.22;0.52;;;15.60;99.90;;;;;;4994328;28;20037;-70
2023/07/20 01:19:26;;;;;;;1.27;0.52;;;15.50;99.90;;;;;;4992047;28;20033;-70
2023/07/20 01:21:55;;;;;;;1.02;0.60;;;15.50;99.90;;;;;;5000340;28;20160;-70
2023/07/20 01:24:23;;;;;;;2.15;0.52;;;15.50;99.90;;;;;;4996349;28;20034;-69
2023/07/20 01:27:10;;;;;;;1.10;0.45;;;15.40;99.90;;;;;;4996877;28;20038;-71
2023/07/20 01:30:03;;;;;;;1.83;0.73;;;15.40;99.90;;;;;;4994640;28;20084;-68
2023/07/20 01:32:31;;;;;;;0.90;0.52;;;15.40;99.90;;;;;;4981159;28;20038;-70
2023/07/20 01:34:58;;;;;;;1.73;0.70;;;15.30;99.90;;;;;;4992162;28;20455;-70
2023/07/20 01:50:20;;;;;;;2.00;0.80;;;15.20;99.90;;;;;;5144684;23;20415;-71
2023/07/20 01:52:46;;;;;;;2.20;1.30;;;15.20;99.90;;;;;;5007847;28;20029;-68
2023/07/20 01:55:11;;;;;;;3.10;1.10;;;15.10;99.90;;;;;;5006231;28;20033;-71
2023/07/20 01:57:37;;;;;;;1.42;0.90;;;15.10;99.90;;;;;;5005462;28;20114;-71
2023/07/20 02:00:03;;;;;;;6.07;1.02;;;15.00;99.90;;;;;;4988551;28;20410;-71
2023/07/20 02:02:29;;;;;;;2.92;1.10;;;15.00;99.90;;;;;;4988670;28;20125;-69
2023/07/20 02:04:55;;;;;;;1.63;0.95;;;15.00;99.90;;;;;;4988178;28;20045;-69
2023/07/20 02:07:20;;;;;;;2.88;1.45;;;15.00;99.90;;;;;;4989203;28;20125;-67
2023/07/20 02:09:46;;;;;;;2.00;0.85;;;14.90;99.90;;;;;;4988269;28;20038;-74
2023/07/20 02:12:11;;;;;;;2.38;1.40;;;14.90;99.90;;;;;;4987616;28;20137;-69
2023/07/20 02:14:37;;;;;;;1.23;0.75;;;14.90;99.90;;;;;;4989027;28;20045;-69
2023/07/20 02:17:02;;;;;;;1.52;0.98;;;14.80;99.90;;;;;;4986543;28;20049;-68
2023/07/20 02:19:29;;;;;;;2.60;1.23;;;14.90;99.90;;;;;;4988481;28;20035;-70
2023/07/20 02:21:55;;;;;;;1.80;1.10;;;14.80;99.90;;;;;;4987756;28;20097;-70
2023/07/20 02:24:20;;;;;;;5.40;1.13;;;14.80;99.90;;;;;;4988873;28;20030;-71
2023/07/20 02:26:46;;;;;;;2.70;1.15;;;14.70;99.90;;;;;;4986840;28;20041;-70
2023/07/20 02:29:11;;;;;;;4.45;1.70;;;14.80;99.90;;;;;;4996567;28;20030;-69
2023/07/20 02:31:39;;;;;;;3.42;1.30;;;14.70;99.90;;;;;;4988646;28;20046;-69
2023/07/20 02:34:08;;;;;;;1.95;1.10;;;14.70;99.90;;;;;;4988043;28;20034;-68
2023/07/20 02:36:34;;;;;;;2.80;1.30;;;14.70;99.90;;;;;;4988764;28;20030;-69
2023/07/20 02:39:01;;;;;;;2.55;1.55;;;14.70;99.90;;;;;;4987375;28;20042;-71
2023/07/20 02:41:27;;;;;;;2.17;1.55;;;14.70;99.90;;;;;;4988678;28;20039;-70
2023/07/20 02:43:52;;;;;;;2.90;1.30;;;14.60;99.90;;;;;;4987781;28;20446;-69
2023/07/20 02:46:18;;;;;;;3.83;1.55;;;14.60;99.90;;;;;;4988705;28;20114;-69
2023/07/20 02:48:44;;;;;;;2.17;1.52;;;14.60;99.90;;;;;;4990610;28;20042;-72
2023/07/20 02:51:11;;;;;;;2.05;1.20;;;14.60;99.90;;;;;;5005247;28;20112;-70
2023/07/20 02:53:36;;;;;;;2.80;1.38;;;14.60;99.90;;;;;;5011837;28;20034;-70
2023/07/20 02:56:02;;;;;;;3.15;1.58;;;14.50;99.90;;;;;;5010953;28;20394;-70
2023/07/20 02:58:28;;;;;;;4.03;1.77;;;14.50;99.90;;;;;;4999253;28;20065;-67
2023/07/20 03:00:53;;;;;;;3.67;1.58;;;14.50;99.90;;;;;;4991368;28;20436;-67
2023/07/20 03:03:19;;;;;;;8.40;1.50;;;14.50;99.90;;;;;;4992379;28;20611;-69
2023/07/20 03:05:45;;;;;;;2.55;1.60;;;14.50;99.90;;;;;;4989793;28;20035;-69
2023/07/20 03:08:11;;;;;;;4.28;1.70;;;14.50;99.90;;;;;;4991975;28;20029;-71
2023/07/20 03:10:40;;;;;;;2.92;1.70;;;14.40;99.90;;;;;;4999865;28;20030;-69
2023/07/20 03:13:06;;;;;;;2.80;1.95;;;14.40;99.90;;;;;;5009423;28;20029;-70
2023/07/20 03:15:32;;;;;;;2.70;1.88;;;14.40;99.90;;;;;;5002032;28;20038;-69
2023/07/20 03:17:58;;;;;;;3.35;1.92;;;14.40;99.90;;;;;;4991007;28;20041;-69
2023/07/20 03:20:24;;;;;;;3.30;1.63;;;14.40;99.90;;;;;;4989966;28;20109;-69
2023/07/20 03:22:49;;;;;;;2.92;1.60;;;14.40;99.90;;;;;;4990822;28;20484;-70
2023/07/20 03:25:15;;;;;;;5.63;2.15;;;14.40;99.90;;;;;;4991651;28;20045;-68
2023/07/20 03:27:41;;;;;;;2.35;1.50;;;14.30;99.90;;;;;;4991115;28;20046;-68
2023/07/20 03:30:09;;;;;;;2.70;1.75;;;14.30;99.90;;;;;;4991291;28;20069;-68
2023/07/20 03:32:35;;;;;;;5.07;1.77;;;14.30;99.90;;;;;;4991536;28;20026;-69
2023/07/20 03:35:01;;;;;;;2.85;1.63;;;14.20;99.90;;;;;;4990413;28;20492;-71
2023/07/20 03:37:26;;;;;;;3.13;1.80;;;14.20;99.90;;;;;;4990108;28;20045;-70
2023/07/20 03:39:52;;;;;;;5.20;2.33;;;14.20;99.90;;;;;;4988949;28;20038;-69
2023/07/20 03:42:17;;;;;;;4.18;2.30;;;14.20;99.90;;;;;;4990792;28;20042;-69
2023/07/20 03:44:43;;;;;;;3.25;2.15;;;14.10;99.90;;;;;;4990861;28;20549;-69
2023/07/20 03:47:09;;;;;;;4.35;1.88;;;14.10;99.90;;;;;;4989445;28;20034;-68
2023/07/20 03:49:34;;;;;;;4.93;1.80;;;14.10;99.90;;;;;;4989841;28;20507;-69
2023/07/20 03:52:03;;;;;;;3.35;2.00;;;14.10;99.90;;;;;;4990221;28;20053;-69
2023/07/20 03:54:28;;;;;;;1.83;1.35;;;14.10;99.90;;;;;;4991713;28;20036;-68
2023/07/20 03:56:54;;;;;;;3.88;2.25;;;14.10;99.90;;;;;;4990288;28;20042;-69
2023/07/20 03:59:20;;;;;;;2.75;1.67;;;14.00;99.90;;;;;;4989847;28;20447;-69
2023/07/20 04:01:46;;;;;;;2.92;1.73;;;14.00;99.90;;;;;;4990590;28;20042;-72
2023/07/20 04:04:11;;;;;;;3.58;1.75;;;14.00;99.90;;;;;;4989543;28;20523;-71
2023/07/20 04:06:37;;;;;;;2.88;1.80;;;14.00;99.90;;;;;;4989415;28;20522;-69
2023/07/20 04:09:05;;;;;;;3.25;1.90;;;14.00;99.90;;;;;;4990131;28;20035;-71
2023/07/20 04:11:30;;;;;;;2.80;1.58;;;14.00;99.90;;;;;;4990955;28;20117;-71
2023/07/20 04:13:56;;;;;;;3.40;2.15;;;14.00;99.90;;;;;;4989412;28;20113;-69
2023/07/20 04:16:22;;;;;;;2.80;1.73;;;14.00;99.90;;;;;;4989419;28;20041;-71
2023/07/20 04:18:47;;;;;;;5.45;2.22;;;14.00;99.90;;;;;;4989704;28;20042;-71
2023/07/20 04:21:13;;;;;;;3.60;1.73;;;14.00;99.90;;;;;;4990275;28;20027;-72
2023/07/20 04:23:39;;;;;;;2.40;1.73;;;14.10;99.90;;;;;;4989351;28;20096;-73
2023/07/20 04:26:06;;;;;;;2.53;1.90;;;14.00;99.90;;;;;;4990103;28;20068;-69
2023/07/20 04:28:32;;;;;;;4.60;1.90;;;14.10;99.90;;;;;;4989189;28;20495;-69
2023/07/20 04:31:12;;;;;;;2.65;1.73;;;14.10;99.90;;;;;;4989638;28;20062;-69
2023/07/20 04:33:39;;;;;;;2.88;1.90;;;14.10;99.90;;;;;;4988951;28;20031;-69
2023/07/20 04:36:04;;;;;;;2.17;1.42;;;14.10;99.90;;;;;;4989414;28;20033;-69
2023/07/20 04:38:30;;;;;;;2.60;1.70;;;14.10;99.90;;;;;;4989365;28;20038;-72
2023/07/20 04:40:55;;;;;;;3.38;2.20;;;14.20;99.90;;;;;;4988731;28;20030;-70
2023/07/20 04:43:21;;;;;;;2.75;1.77;;;14.20;99.90;;;;;;4987902;28;20038;-68
2023/07/20 04:45:47;;;;;;;4.28;2.20;;;14.30;99.90;;;;;;4988090;28;20041;-68
2023/07/20 04:48:15;;;;;;;3.28;1.80;;;14.30;99.90;;;;;;4990263;28;20034;-70
2023/07/20 04:50:42;;;;;;;4.50;2.28;;;14.30;99.90;;;;;;4989833;28;20444;-70
2023/07/20 04:53:10;;;;;;;3.08;1.83;;;14.40;99.90;;;;;;4989631;28;20113;-69
2023/07/20 04:55:36;;;;;;;3.42;1.65;;;14.40;99.90;;;;;;4988496;28;20077;-69
2023/07/20 04:58:03;;;;;;;3.17;1.80;;;14.40;99.90;;;;;;4986952;28;20506;-69
2023/07/20 05:00:29;;;;;;;4.25;2.15;;;14.50;99.90;;;;;;4997780;28;20042;-70
2023/07/20 05:02:55;;;;;;;3.60;1.88;;;14.50;99.90;;;;;;4987628;28;20034;-70
2023/07/20 05:05:21;;;;;;;2.58;1.50;;;14.60;99.90;;;;;;4987868;28;20049;-71
2023/07/20 05:07:46;;;;;;;2.05;1.45;;;14.60;99.90;;;;;;4986071;28;20026;-70
2023/07/20 05:10:12;;;;;;;2.42;1.33;;;14.60;99.90;;;;;;4987757;28;20030;-71
2023/07/20 05:12:38;;;;;;;3.22;1.50;;;14.60;99.90;;;;;;4986408;28;20045;-70
2023/07/20 05:15:04;;;;;;;4.50;1.63;;;14.60;99.90;;;;;;4985862;28;20035;-68
2023/07/20 05:17:30;;;;;;;3.15;1.58;;;14.70;99.90;;;;;;4986471;28;20157;-71
2023/07/20 05:19:55;;;;;;;2.60;1.63;;;14.70;99.90;;;;;;4985251;28;20109;-69
2023/07/20 05:22:21;;;;;;;2.08;1.08;;;14.80;99.90;;;;;;4987738;28;20030;-69
2023/07/20 05:24:46;;;;;;;4.68;1.38;;;14.80;99.90;;;;;;4986954;28;20030;-72
2023/07/20 05:27:12;;;;;;;2.42;1.25;;;14.80;99.90;;;;;;4987994;28;20157;-71
2023/07/20 05:29:42;;;;;;;2.63;1.23;;;14.80;99.90;;;;;;4986564;28;20054;-70
2023/07/20 05:32:09;;;;;;;2.45;1.27;;;14.90;99.90;;;;;;4985945;28;20038;-70
2023/07/20 05:34:35;;;;;;;4.25;1.50;;;14.90;99.90;;;;;;4986319;28;20038;-74
2023/07/20 05:37:03;;;;;;;1.30;1.05;;;14.90;99.90;;;;;;4987469;28;20403;-71
2023/07/20 05:39:28;;;;;;;1.10;0.73;;;15.00;99.90;;;;;;4984882;28;20038;-69
2023/07/20 05:41:54;;;;;;;1.63;1.00;;;15.10;99.90;;;;;;4985370;28;20380;-70
2023/07/20 05:44:19;;;;;;;4.03;0.85;;;15.10;99.90;;;;;;4986568;28;20069;-70
2023/07/20 05:46:45;;;;;;;1.75;0.80;;;15.30;99.90;;;;;;4986748;28;20038;-71
2023/07/20 05:49:10;;;;;;;2.72;0.73;;;15.50;99.90;;;;;;4987786;28;20038;-70
2023/07/20 05:51:36;;;;;;;2.92;0.82;;;16.00;99.90;;;;;;4986473;28;20121;-69
2023/07/20 05:54:02;;;;;;;0.77;0.40;;;16.50;99.90;;;;;;4987202;28;20031;-69
2023/07/20 05:56:27;;;;;;;2.53;0.57;;;17.00;99.90;;;;;;4986085;28;20037;-69
2023/07/20 05:58:53;;;;;;;0.82;0.25;;;17.50;99.90;;;;;;4986588;28;20038;-70
2023/07/20 06:01:19;;;;;;;3.20;0.40;;;17.80;99.90;;;;;;4988050;28;20041;-69
2023/07/20 06:03:44;;;;;;;1.27;0.40;;;18.00;99.90;;;;;;4988230;28;20038;-71
2023/07/20 06:06:11;;;;;;;0.98;0.28;;;18.10;99.90;;;;;;4987758;28;20599;-71
2023/07/20 06:08:37;;;;;;;2.10;0.30;;;18.20;99.90;;;;;;4988055;28;20070;-72
2023/07/20 06:11:03;;;;;;;0.40;0.30;;;18.20;99.90;;;;;;4987017;28;20058;-70
2023/07/20 06:13:28;;;;;;;0.88;0.20;;;18.40;99.90;;;;;;4987738;28;20038;-72
2023/07/20 06:15:55;;;;;;;0.90;0.17;;;18.40;99.90;;;;;;4986878;28;20034;-72
2023/07/20 06:18:22;;;;;;;0.50;0.10;;;18.50;99.90;;;;;;4986507;28;20126;-71
2023/07/20 06:20:51;;;;;;;1.95;0.43;;;18.40;99.90;;;;;;4985100;28;20042;-72
2023/07/20 06:23:19;;;;;;;1.00;0.43;;;18.40;99.90;;;;;;4989833;28;20049;-73
2023/07/20 06:25:45;;;;;;;0.17;0.08;;;18.30;99.90;;;;;;4991598;28;20034;-69
2023/07/20 06:28:11;;;;;;;1.63;0.10;;;18.30;99.90;;;;;;4991301;28;20034;-74
2023/07/20 06:30:36;;;;;;;2.50;0.20;;;18.20;99.90;;;;;;4991340;28;20034;-72
2023/07/20 06:33:02;;;;;;;1.00;0.30;;;18.20;99.90;;;;;;4988554;28;20038;-72
2023/07/20 06:35:27;;;;;;;1.80;0.10;;;18.20;99.90;;;;;;4990854;28;20030;-72
2023/07/20 06:37:53;;;;;;;1.45;0.10;;;18.30;99.90;;;;;;4989545;28;20031;-71
2023/07/20 06:40:19;;;;;;;0.77;0.10;;;18.40;99.90;;;;;;4990998;28;20050;-71
2023/07/20 06:42:44;;;;;;;0.80;0.20;;;18.60;99.90;;;;;;4990386;28;20045;-71
2023/07/20 06:45:11;;;;;;;0.28;0.05;;;18.80;99.90;;;;;;4989230;28;20073;-72
2023/07/20 06:47:40;;;;;;;0.60;0.10;;;18.90;99.90;;;;;;4990573;28;20049;-71
2023/07/20 06:50:06;;;;;;;0.20;0.10;;;18.90;99.90;;;;;;4988293;28;20129;-70
2023/07/20 06:52:32;;;;;;;1.58;0.10;;;19.10;99.90;;;;;;4990404;28;20042;-71
2023/07/20 06:54:58;;;;;;;3.15;0.30;;;19.50;99.90;;;;;;4987608;28;20045;-72
2023/07/20 06:57:23;;;;;;;0.55;0.10;;;20.20;99.90;;;;;;4990535;28;20034;-71
2023/07/20 06:59:49;;;;;;;0.75;0.10;;;21.00;99.90;;;;;;4989411;28;20126;-69
2023/07/20 07:02:14;;;;;;;0.40;0.10;;;22.00;99.90;;;;;;4988581;28;20552;-72
2023/07/20 07:04:40;;;;;;;5.97;0.50;;;22.50;99.90;;;;;;4989323;28;20031;-72
2023/07/20 07:07:06;;;;;;;0.75;0.00;;;22.60;99.90;;;;;;4988233;28;20034;-71
2023/07/20 07:09:32;;;;;;;0.50;0.00;;;22.50;99.90;;;;;;4989152;28;20488;-69
2023/07/20 07:11:57;;;;;;;0.63;0.10;;;22.50;99.90;;;;;;4987874;28;20567;-69
2023/07/20 07:14:23;;;;;;;0.10;0.08;;;22.70;99.90;;;;;;4987957;28;20043;-72
2023/07/20 07:16:48;;;;;;;0.32;0.10;;;23.20;99.90;;;;;;4986655;28;20041;-72
2023/07/20 07:19:14;;;;;;;5.43;0.52;;;23.90;99.90;;;;;;4987802;28;20098;-70
2023/07/20 07:21:39;;;;;;;1.45;0.20;;;24.90;97.90;;;;;;4988181;28;20034;-70
2023/07/20 07:24:07;;;;;;;0.93;0.30;;;26.10;97.00;;;;;;4988190;28;20050;-71
2023/07/20 07:26:32;;;;;;;0.80;0.22;;;26.80;97.40;;;;;;4989703;28;20034;-71
2023/07/20 07:28:58;;;;;;;0.35;0.20;;;27.40;95.60;;;;;;4985972;28;20562;-73
2023/07/20 07:31:25;;;;;;;1.23;0.43;;;27.60;95.40;;;;;;4986737;28;20089;-71
2023/07/20 07:33:51;;;;;;;0.45;0.10;;;27.90;94.30;;;;;;5018604;28;20145;-72
2023/07/20 07:36:16;;;;;;;0.80;0.20;;;28.00;94.90;;;;;;4988569;28;20905;-71
2023/07/20 07:41:17;;;;;;;4.45;0.50;;;28.60;92.80;;;;;;5074285;23;20045;-70
2023/07/20 07:43:43;;;;;;;2.10;0.20;;;28.90;90.80;;;;;;4986907;28;20027;-72
2023/07/20 07:46:08;;;;;;;2.05;0.32;;;29.40;90.50;;;;;;4985089;28;20031;-72
2023/07/20 07:48:34;;;;;;;1.48;0.13;;;29.70;90.20;;;;;;4987233;28;20050;-72
2023/07/20 07:51:00;;;;;;;1.20;0.17;;;30.00;86.20;;;;;;4986330;28;20129;-71
2023/07/20 07:53:25;;;;;;;0.65;0.20;;;30.00;87.40;;;;;;4986302;28;20042;-72
2023/07/20 07:55:52;;;;;;;0.40;0.30;;;30.30;87.80;;;;;;4985067;28;20030;-71
2023/07/20 07:58:18;;;;;;;1.25;0.50;;;29.90;85.00;;;;;;4987028;28;20058;-74
2023/07/20 08:00:45;;;;;;;2.70;0.50;;;29.70;86.10;;;;;;4985299;28;20062;-71
2023/07/20 08:03:10;;;;;;;1.63;0.38;;;29.40;85.60;;;;;;4986894;28;20106;-71
2023/07/20 08:05:36;;;;;;;0.30;0.30;;;29.40;87.60;;;;;;4987664;28;20121;-72
2023/07/20 08:08:03;;;;;;;0.40;0.20;;;29.20;84.30;;;;;;4985353;28;20081;-72
2023/07/20 08:10:29;;;;;;;2.75;0.28;;;28.40;86.70;;;;;;4987724;28;20053;-70
2023/07/20 08:12:55;;;;;;;0.50;0.20;;;27.70;87.30;;;;;;4986012;28;20030;-70
2023/07/20 08:15:21;;;;;;;0.85;0.17;;;26.90;87.60;;;;;;4985441;28;20058;-70
2023/07/20 08:17:48;;;;;;;3.30;0.17;;;26.00;89.40;;;;;;4986279;28;20031;-72
2023/07/20 08:20:14;;;;;;;0.68;0.15;;;25.50;90.20;;;;;;4986945;28;20035;-70
2023/07/20 08:22:40;;;;;;;1.13;0.10;;;25.00;90.90;;;;;;4987463;28;20547;-70
2023/07/20 08:25:06;;;;;;;1.13;0.10;;;24.70;90.60;;;;;;4984252;28;20042;-70
2023/07/20 08:27:32;;;;;;;1.42;0.30;;;24.20;91.10;;;;;;4985980;28;20030;-69
2023/07/20 08:29:57;;;;;;;0.95;0.17;;;23.80;91.80;;;;;;4985140;28;20384;-69
2023/07/20 08:32:23;;;;;;;0.10;0.00;;;23.40;91.90;;;;;;4986922;28;20062;-70
2023/07/20 08:34:48;;;;;;;0.28;0.00;;;23.30;91.20;;;;;;4984095;28;20514;-71
2023/07/20 08:37:14;;;;;;;1.17;0.20;;;23.00;92.30;;;;;;4987055;28;20610;-70
2023/07/20 08:39:40;;;;;;;1.48;0.20;;;23.00;92.40;;;;;;4986460;28;20521;-69
2023/07/20 08:42:06;;;;;;;0.13;0.00;;;23.00;92.30;;;;;;4984167;28;20046;-70
2023/07/20 08:44:33;;;;;;;3.22;0.10;;;22.90;92.90;;;;;;4985055;28;20042;-70
2023/07/20 08:47:02;;;;;;;1.23;0.10;;;22.80;92.50;;;;;;4983561;28;20034;-69
2023/07/20 08:49:28;;;;;;;0.55;0.20;;;22.80;93.40;;;;;;4985278;28;20490;-70
2023/07/20 08:51:54;;;;;;;2.60;0.75;;;22.70;93.10;;;;;;4980051;28;20053;-69
2023/07/20 08:54:20;;;;;;;0.40;0.20;;;22.70;93.80;;;;;;4984858;28;20034;-70
2023/07/20 08:56:46;;;;;;;0.10;0.00;;;22.80;93.70;;;;;;4987410;28;20031;-70
2023/07/20 08:59:16;;;;;;;0.65;0.10;;;22.80;93.20;;;;;;4985017;28;20041;-70
2023/07/20 09:01:43;;;;;;;1.05;0.20;;;22.80;92.20;;;;;;4983542;28;20218;-69
2023/07/20 09:04:08;;;;;;;0.30;0.00;;;22.70;92.60;;;;;;4983847;28;20033;-69
2023/07/20 09:06:35;;;;;;;0.17;0.00;;;22.60;92.70;;;;;;4983589;28;20228;-70
2023/07/20 09:09:01;;;;;;;0.63;0.10;;;22.60;91.70;;;;;;4985413;28;20038;-70
2023/07/20 09:11:26;;;;;;;0.80;0.10;;;22.70;92.30;;;;;;4984829;28;20384;-70
2023/07/20 09:14:07;;;;;;;0.38;0.10;;;22.70;91.70;;;;;;4985873;28;20046;-70
2023/07/20 09:16:32;;;;;;;;;;;22.70;92.10;;;;;;4983306;28;20030;-69
2023/07/20 09:18:59;;;;;;;0.73;0.30;;;22.70;91.90;;;;;;4983378;28;19913;-68
2023/07/20 09:21:30;;;;;;;0.28;0.10;;;22.60;91.70;;;;;;4980490;28;20061;-70
2023/07/20 09:23:57;;;;;;;0.10;0.10;;;22.70;92.00;;;;;;4981889;28;20058;-69
2023/07/20 09:26:22;;;;;;;1.05;0.00;;;22.60;91.00;;;;;;4985708;28;20031;-70
2023/07/20 09:28:52;;;;;;;1.00;0.20;;;22.70;90.90;;;;;;4984469;28;20034;-69
2023/07/20 09:31:19;;;;;;;0.10;0.10;;;22.60;90.70;;;;;;4986128;28;20507;-70
2023/07/20 09:33:49;;;;;;;0.38;0.10;;;22.50;92.20;;;;;;4985185;28;20042;-69
2023/07/20 09:36:14;;;;;;;0.38;0.10;;;22.40;93.20;;;;;;4984114;28;20041;-70
2023/07/20 09:38:42;;;;;;;0.50;0.10;;;22.40;94.20;;;;;;4985891;28;20038;-69
2023/07/20 09:41:08;;;;;;;0.10;0.00;;;22.40;93.20;;;;;;4984626;28;20034;-70
2023/07/20 09:43:37;;;;;;;4.63;0.52;;;22.60;93.20;;;;;;4985760;28;20040;-70
2023/07/20 09:46:02;;;;;;;0.35;0.03;;;22.80;92.90;;;;;;4982762;28;20392;-69
2023/07/20 09:48:29;;;;;;;0.93;0.22;;;23.10;93.20;;;;;;4985418;28;20030;-71
2023/07/20 09:50:56;;;;;;;0.20;0.00;;;23.20;92.60;;;;;;4984526;28;20046;-70
2023/07/20 09:53:24;;;;;;;0.22;0.00;;;23.30;91.30;;;;;;4984751;28;20913;-70
2023/07/20 09:55:50;;;;;;;0.30;0.08;;;23.10;91.70;;;;;;4983107;28;20039;-69
2023/07/20 09:58:16;;;;;;;3.05;0.15;;;22.80;91.40;;;;;;4983009;28;20042;-69
2023/07/20 10:00:50;;;;;;;0.13;0.00;;;22.70;93.30;;;;;;4984570;28;20031;-70
2023/07/20 10:03:20;;;;;;;1.58;0.10;;;22.60;93.20;;;;;;4978955;28;20121;-70
2023/07/20 10:05:54;;;;;;;0.22;0.10;;;23.00;93.00;;;;;;4976736;28;20122;-70
2023/07/20 10:08:24;;;;;;;2.15;0.17;;;23.20;91.30;;;;;;4975176;28;20116;-69
2023/07/20 10:10:50;;;;;;;0.38;0.13;;;23.50;91.30;;;;;;4971910;28;20125;-70
2023/07/20 10:13:27;;;;;;;0.43;0.00;;;23.70;90.50;;;;;;4985441;28;20074;-69
2023/07/20 10:16:07;;;;;;;0.75;0.10;;;23.70;90.70;;;;;;4985476;28;20042;-71
2023/07/20 10:18:57;;;;;;;0.47;0.10;;;23.70;91.40;;;;;;4983042;28;20031;-70
2023/07/20 10:21:23;;;;;;;0.22;0.10;;;23.60;91.60;;;;;;4983778;28;20169;-69
2023/07/20 10:23:50;;;;;;;0.15;0.10;;;23.20;92.10;;;;;;4985034;28;20541;-69
2023/07/20 10:26:15;;;;;;;1.88;0.22;;;22.80;92.80;;;;;;4986075;28;20416;-70
2023/07/20 10:28:41;;;;;;;0.77;0.20;;;22.50;93.60;;;;;;4985298;28;20027;-74
2023/07/20 10:31:13;;;;;;;6.13;0.28;;;22.30;94.30;;;;;;4984396;28;20050;-69
2023/07/20 10:33:39;;;;;;;2.40;0.45;;;22.30;94.40;;;;;;4984921;28;20026;-69
2023/07/20 10:36:05;;;;;;;4.32;0.22;;;22.30;94.70;;;;;;4982949;28;20154;-69
2023/07/20 10:38:40;;;;;;;8.98;0.43;;;22.30;94.50;;;;;;4984746;28;20065;-70
2023/07/20 10:41:20;;;;;;;0.28;0.20;;;22.30;94.40;;;;;;4981417;28;20089;-70
2023/07/20 10:43:46;;;;;;;0.20;0.00;;;22.30;94.20;;;;;;4984156;28;20038;-69
2023/07/20 10:46:12;;;;;;;1.15;0.30;;;22.30;93.30;;;;;;4983628;28;20042;-70
2023/07/20 10:49:03;;;;;;;1.88;0.10;;;22.40;93.40;;;;;;4984324;28;20038;-69
2023/07/20 10:51:28;;;;;;;0.43;0.20;;;22.60;93.30;;;;;;4984530;28;20045;-69
2023/07/20 10:53:58;;;;;;;0.40;0.10;;;22.80;93.60;;;;;;4983284;28;21431;-70
2023/07/20 10:56:29;;;;;;;0.25;0.10;;;23.10;93.70;;;;;;4982746;28;20416;-69
2023/07/20 10:58:59;;;;;;;0.10;0.00;;;23.30;92.00;;;;;;4983356;28;20038;-70
2023/07/20 11:01:32;;;;;;;0.98;0.30;;;23.50;93.40;;;;;;4984559;28;20035;-70
2023/07/20 11:04:01;;;;;;;0.45;0.28;;;23.70;93.90;;;;;;4974258;28;20023;-70
2023/07/20 11:06:27;;;;;;;1.35;0.00;;;23.70;94.10;;;;;;4975513;28;20031;-68
2023/07/20 11:08:59;;;;;;;2.28;0.30;;;23.70;93.60;;;;;;4973037;28;20054;-70
2023/07/20 11:11:27;;;;;;;0.45;0.20;;;23.80;93.70;;;;;;4977810;28;20047;-70
2023/07/20 11:13:58;;;;;;;0.40;0.15;;;24.00;93.80;;;;;;4978684;28;20039;-70
2023/07/20 11:16:40;;;;;;;0.00;0.00;;;24.20;93.10;;;;;;4981420;28;20077;-69
2023/07/20 11:19:12;;;;;;;1.10;0.22;;;24.30;92.70;;;;;;4979744;28;20034;-69
2023/07/20 11:21:40;;;;;;;1.45;0.30;;;24.10;92.70;;;;;;4980113;28;20045;-69
2023/07/20 11:24:07;;;;;;;1.42;0.20;;;23.90;92.40;;;;;;4982782;28;20496;-69
2023/07/20 11:26:53;;;;;;;0.55;0.10;;;23.80;92.20;;;;;;4981651;28;20529;-69
2023/07/20 11:29:21;;;;;;;0.17;0.10;;;23.60;92.60;;;;;;4980749;28;20055;-69
2023/07/20 11:31:47;;;;;;;0.60;0.10;;;23.40;92.40;;;;;;4979487;28;20042;-73
2023/07/20 11:34:18;;;;;;;0.20;0.10;;;23.10;93.30;;;;;;4985573;28;20111;-72
2023/07/20 11:36:46;;;;;;;1.30;0.40;;;22.80;93.30;;;;;;4978077;28;20125;-69
2023/07/20 11:39:14;;;;;;;0.82;0.10;;;22.60;93.20;;;;;;4981345;28;20039;-69
2023/07/20 11:41:48;;;;;;;1.63;0.20;;;22.60;94.10;;;;;;4977592;28;20035;-70
2023/07/20 11:44:15;;;;;;;0.43;0.20;;;22.50;93.70;;;;;;4979250;28;20045;-69
2023/07/20 11:46:42;;;;;;;0.57;0.10;;;22.60;93.60;;;;;;4985382;28;20034;-69
2023/07/20 11:49:08;;;;;;;0.77;0.10;;;22.60;93.20;;;;;;4979802;28;20936;-68
2023/07/20 11:51:35;;;;;;;1.73;0.20;;;22.70;93.70;;;;;;4980451;28;20051;-68
2023/07/20 11:54:02;;;;;;;1.13;0.10;;;23.00;93.00;;;;;;4981401;28;20058;-70
2023/07/20 11:56:28;;;;;;;0.45;0.10;;;23.20;92.20;;;;;;4982370;28;20050;-69
2023/07/20 11:59:01;;;;;;;1.85;0.10;;;23.30;92.70;;;;;;4980973;28;20027;-71
2023/07/20 12:01:32;;;;;;;1.58;0.10;;;23.50;91.30;;;;;;4982130;28;20065;-69
2023/07/20 12:04:02;;;;;;;1.65;0.25;;;23.60;91.90;;;;;;4980806;28;20041;-69
2023/07/20 12:06:29;;;;;;;1.42;0.20;;;23.70;91.70;;;;;;4980059;28;20039;-69
2023/07/20 12:08:59;;;;;;;0.63;0.25;;;23.70;92.50;;;;;;4980918;28;20038;-71
2023/07/20 12:11:35;;;;;;;0.10;0.10;;;23.60;91.10;;;;;;4979494;28;20039;-69
2023/07/20 12:14:02;;;;;;;0.82;0.30;;;23.30;91.80;;;;;;4977336;28;20550;-68
2023/07/20 12:16:29;;;;;;;2.38;0.20;;;23.10;92.40;;;;;;4981576;28;20035;-72
2023/07/20 12:19:09;;;;;;;0.20;0.15;;;22.90;93.00;;;;;;4980665;28;20129;-71
2023/07/20 12:21:38;;;;;;;2.72;0.20;;;22.90;93.70;;;;;;4977497;28;20043;-70
2023/07/20 12:24:04;;;;;;;0.90;0.10;;;22.80;94.10;;;;;;4979127;28;20106;-70
2023/07/20 12:26:31;;;;;;;1.67;0.30;;;22.70;93.50;;;;;;4980480;28;20069;-69
2023/07/20 12:28:57;;;;;;;1.42;0.17;;;22.50;93.30;;;;;;4978035;28;20049;-71
2023/07/20 12:31:24;;;;;;;0.55;0.25;;;22.50;94.40;;;;;;4981259;28;20104;-70
2023/07/20 12:33:55;;;;;;;1.80;0.30;;;22.40;93.50;;;;;;4975547;28;20041;-70
2023/07/20 12:36:21;;;;;;;0.80;0.20;;;22.40;93.70;;;;;;4980266;28;20388;-70
2023/07/20 12:38:46;;;;;;;1.50;0.20;;;22.40;94.90;;;;;;4977762;28;20057;-73
2023/07/20 12:41:14;;;;;;;1.90;0.08;;;22.40;94.60;;;;;;4977700;28;20049;-70
2023/07/20 12:43:46;;;;;;;1.55;0.20;;;22.50;95.20;;;;;;4979215;28;20054;-69
2023/07/20 12:46:13;;;;;;;0.63;0.22;;;22.80;95.10;;;;;;4980409;28;20038;-71
2023/07/20 12:48:40;;;;;;;1.20;0.20;;;23.10;94.00;;;;;;4977277;28;20118;-72
2023/07/20 12:51:07;;;;;;;0.70;0.10;;;23.20;93.50;;;;;;4977023;28;20037;-70
2023/07/20 12:53:33;;;;;;;0.80;0.20;;;23.30;94.10;;;;;;4979328;28;20085;-69
2023/07/20 12:55:59;;;;;;;1.40;0.20;;;23.40;94.10;;;;;;4976442;28;20420;-69
2023/07/20 12:58:25;;;;;;;1.88;0.38;;;23.50;93.10;;;;;;4980832;28;20500;-72
2023/07/20 13:00:51;;;;;;;0.35;0.15;;;23.60;93.20;;;;;;4975349;28;20023;-69
2023/07/20 13:03:19;;;;;;;0.90;0.28;;;23.50;93.10;;;;;;4977306;28;20385;-70